sensor_id;sensor_type;location;lat;lon;timestamp;P1;durP1;ratioP1;P2;durP2;ratioP2
55300;SDS011;58302;51.446;-2.000;2023-01-23T00:00:55;103.88;;;47.20;;
55300;SDS011;58302;51.446;-2.000;2023-01-23T00:03:22;98.57;;;43.47;;
55300;SDS011;58302;51.446;-2.000;2023-01-23T00:06:05;80.97;;;41.90;;
55300;SDS011;58302;51.446;-2.000;2023-01-23T00:08:33;101.55;;;44.95;;
55300;SDS011;58302;51.446;-2.000;2023-01-23T00:11:03;87.97;;;41.05;;
55300;SDS011;58302;51.446;-2.000;2023-01-23T00:13:31;89.03;;;40.17;;
55300;SDS011;58302;51.446;-2.000;2023-01-23T00:15:58;80.55;;;40.85;;
55300;SDS011;58302;51.446;-2.000;2023-01-23T00:18:23;82.53;;;39.85;;
55300;SDS011;58302;51.446;-2.000;2023-01-23T00:20:49;94.70;;;42.03;;
55300;SDS011;58302;51.446;-2.000;2023-01-23T00:23:16;89.18;;;40.20;;
55300;SDS011;58302;51.446;-2.000;2023-01-23T00:25:42;92.78;;;39.83;;
55300;SDS011;58302;51.446;-2.000;2023-01-23T00:28:08;98.35;;;46.08;;
55300;SDS011;58302;51.446;-2.000;2023-01-23T00:30:34;99.15;;;48.00;;
55300;SDS011;58302;51.446;-2.000;2023-01-23T00:33:00;93.53;;;44.75;;
55300;SDS011;58302;51.446;-2.000;2023-01-23T00:35:26;109.03;;;48.47;;
55300;SDS011;58302;51.446;-2.000;2023-01-23T00:37:52;95.68;;;47.47;;
55300;SDS011;58302;51.446;-2.000;2023-01-23T00:40:18;97.18;;;42.78;;
55300;SDS011;58302;51.446;-2.000;2023-01-23T00:42:44;90.90;;;41.78;;
55300;SDS011;58302;51.446;-2.000;2023-01-23T00:45:10;83.97;;;40.75;;
55300;SDS011;58302;51.446;-2.000;2023-01-23T00:47:36;89.63;;;41.90;;
55300;SDS011;58302;51.446;-2.000;2023-01-23T00:50:02;99.43;;;42.80;;
55300;SDS011;58302;51.446;-2.000;2023-01-23T00:52:28;100.93;;;43.15;;
55300;SDS011;58302;51.446;-2.000;2023-01-23T00:54:55;85.13;;;40.38;;
55300;SDS011;58302;51.446;-2.000;2023-01-23T00:57:21;76.47;;;38.15;;
55300;SDS011;58302;51.446;-2.000;2023-01-23T00:59:47;82.93;;;39.67;;
55300;SDS011;58302;51.446;-2.000;2023-01-23T01:02:13;76.43;;;36.75;;
55300;SDS011;58302;51.446;-2.000;2023-01-23T01:04:39;75.20;;;38.08;;
55300;SDS011;58302;51.446;-2.000;2023-01-23T01:07:05;80.80;;;38.47;;
55300;SDS011;58302;51.446;-2.000;2023-01-23T01:09:31;83.20;;;39.30;;
55300;SDS011;58302;51.446;-2.000;2023-01-23T01:11:57;85.90;;;40.53;;
55300;SDS011;58302;51.446;-2.000;2023-01-23T01:14:23;87.35;;;40.72;;
55300;SDS011;58302;51.446;-2.000;2023-01-23T01:16:49;90.83;;;36.53;;
55300;SDS011;58302;51.446;-2.000;2023-01-23T01:19:15;78.10;;;37.13;;
55300;SDS011;58302;51.446;-2.000;2023-01-23T01:21:42;105.97;;;44.30;;
55300;SDS011;58302;51.446;-2.000;2023-01-23T01:24:10;77.10;;;38.00;;
55300;SDS011;58302;51.446;-2.000;2023-01-23T01:26:36;95.73;;;39.33;;
55300;SDS011;58302;51.446;-2.000;2023-01-23T01:29:02;83.90;;;38.20;;
55300;SDS011;58302;51.446;-2.000;2023-01-23T01:31:28;84.87;;;40.87;;
55300;SDS011;58302;51.446;-2.000;2023-01-23T01:33:54;72.00;;;33.42;;
55300;SDS011;58302;51.446;-2.000;2023-01-23T01:36:21;76.57;;;30.60;;
55300;SDS011;58302;51.446;-2.000;2023-01-23T01:38:48;69.95;;;36.40;;
55300;SDS011;58302;51.446;-2.000;2023-01-23T01:41:15;69.07;;;32.13;;
55300;SDS011;58302;51.446;-2.000;2023-01-23T01:43:42;81.73;;;37.00;;
55300;SDS011;58302;51.446;-2.000;2023-01-23T01:46:11;81.43;;;36.23;;
55300;SDS011;58302;51.446;-2.000;2023-01-23T01:51:20;76.53;;;34.77;;
55300;SDS011;58302;51.446;-2.000;2023-01-23T01:53:56;86.93;;;38.47;;
55300;SDS011;58302;51.446;-2.000;2023-01-23T01:56:23;64.00;;;31.60;;
55300;SDS011;58302;51.446;-2.000;2023-01-23T01:58:51;85.20;;;36.50;;
55300;SDS011;58302;51.446;-2.000;2023-01-23T02:01:19;72.00;;;34.53;;
55300;SDS011;58302;51.446;-2.000;2023-01-23T02:03:46;64.87;;;27.53;;
55300;SDS011;58302;51.446;-2.000;2023-01-23T02:06:14;57.85;;;28.02;;
55300;SDS011;58302;51.446;-2.000;2023-01-23T02:11:42;61.53;;;27.87;;
55300;SDS011;58302;51.446;-2.000;2023-01-23T02:14:08;65.75;;;29.13;;
55300;SDS011;58302;51.446;-2.000;2023-01-23T02:16:35;64.50;;;29.40;;
55300;SDS011;58302;51.446;-2.000;2023-01-23T02:19:09;70.23;;;34.37;;
55300;SDS011;58302;51.446;-2.000;2023-01-23T02:21:43;71.77;;;33.77;;
55300;SDS011;58302;51.446;-2.000;2023-01-23T02:24:22;79.83;;;36.53;;
55300;SDS011;58302;51.446;-2.000;2023-01-23T02:26:56;77.67;;;34.37;;
55300;SDS011;58302;51.446;-2.000;2023-01-23T02:29:22;80.70;;;35.73;;
55300;SDS011;58302;51.446;-2.000;2023-01-23T02:31:48;64.23;;;30.03;;
55300;SDS011;58302;51.446;-2.000;2023-01-23T02:34:17;77.87;;;32.70;;
55300;SDS011;58302;51.446;-2.000;2023-01-23T02:36:44;79.93;;;33.43;;
55300;SDS011;58302;51.446;-2.000;2023-01-23T02:39:13;87.77;;;36.07;;
55300;SDS011;58302;51.446;-2.000;2023-01-23T02:41:42;86.03;;;37.57;;
55300;SDS011;58302;51.446;-2.000;2023-01-23T02:46:44;75.40;;;25.88;;
55300;SDS011;58302;51.446;-2.000;2023-01-23T02:49:10;77.73;;;34.17;;
55300;SDS011;58302;51.446;-2.000;2023-01-23T02:51:37;77.07;;;33.27;;
55300;SDS011;58302;51.446;-2.000;2023-01-23T02:54:03;73.00;;;29.60;;
55300;SDS011;58302;51.446;-2.000;2023-01-23T02:56:29;59.23;;;28.43;;
55300;SDS011;58302;51.446;-2.000;2023-01-23T02:58:55;55.93;;;28.13;;
55300;SDS011;58302;51.446;-2.000;2023-01-23T03:01:53;64.00;;;27.63;;
55300;SDS011;58302;51.446;-2.000;2023-01-23T03:04:20;87.27;;;32.23;;
55300;SDS011;58302;51.446;-2.000;2023-01-23T03:06:46;58.27;;;29.57;;
55300;SDS011;58302;51.446;-2.000;2023-01-23T03:09:12;57.10;;;29.40;;
55300;SDS011;58302;51.446;-2.000;2023-01-23T03:11:41;75.23;;;29.87;;
55300;SDS011;58302;51.446;-2.000;2023-01-23T03:14:09;68.60;;;28.40;;
55300;SDS011;58302;51.446;-2.000;2023-01-23T03:16:37;74.27;;;32.37;;
55300;SDS011;58302;51.446;-2.000;2023-01-23T03:19:03;61.80;;;28.90;;
55300;SDS011;58302;51.446;-2.000;2023-01-23T03:21:33;60.97;;;29.30;;
55300;SDS011;58302;51.446;-2.000;2023-01-23T03:24:01;61.43;;;28.20;;
55300;SDS011;58302;51.446;-2.000;2023-01-23T03:26:29;72.20;;;31.30;;
55300;SDS011;58302;51.446;-2.000;2023-01-23T03:28:55;62.77;;;29.13;;
55300;SDS011;58302;51.446;-2.000;2023-01-23T03:31:40;43.03;;;22.80;;
55300;SDS011;58302;51.446;-2.000;2023-01-23T03:34:06;44.07;;;26.00;;
55300;SDS011;58302;51.446;-2.000;2023-01-23T03:36:33;59.13;;;28.17;;
55300;SDS011;58302;51.446;-2.000;2023-01-23T03:39:05;74.60;;;31.80;;
55300;SDS011;58302;51.446;-2.000;2023-01-23T03:41:51;71.60;;;31.87;;
55300;SDS011;58302;51.446;-2.000;2023-01-23T03:44:17;63.43;;;29.43;;
55300;SDS011;58302;51.446;-2.000;2023-01-23T03:46:45;60.07;;;26.77;;
55300;SDS011;58302;51.446;-2.000;2023-01-23T03:49:13;61.67;;;27.67;;
55300;SDS011;58302;51.446;-2.000;2023-01-23T03:51:39;51.57;;;24.47;;
55300;SDS011;58302;51.446;-2.000;2023-01-23T03:54:05;46.47;;;25.47;;
55300;SDS011;58302;51.446;-2.000;2023-01-23T03:56:31;60.97;;;26.67;;
55300;SDS011;58302;51.446;-2.000;2023-01-23T03:58:57;51.00;;;25.43;;
55300;SDS011;58302;51.446;-2.000;2023-01-23T04:01:24;58.37;;;25.60;;
55300;SDS011;58302;51.446;-2.000;2023-01-23T04:03:49;62.10;;;28.17;;
55300;SDS011;58302;51.446;-2.000;2023-01-23T04:06:16;48.20;;;23.10;;
55300;SDS011;58302;51.446;-2.000;2023-01-23T04:08:43;52.13;;;23.00;;
55300;SDS011;58302;51.446;-2.000;2023-01-23T04:11:09;69.80;;;28.00;;
55300;SDS011;58302;51.446;-2.000;2023-01-23T04:13:36;83.77;;;36.17;;
55300;SDS011;58302;51.446;-2.000;2023-01-23T04:16:03;73.00;;;31.50;;
55300;SDS011;58302;51.446;-2.000;2023-01-23T04:18:30;64.60;;;28.87;;
55300;SDS011;58302;51.446;-2.000;2023-01-23T04:20:56;48.97;;;23.37;;
55300;SDS011;58302;51.446;-2.000;2023-01-23T04:23:22;43.53;;;22.80;;
55300;SDS011;58302;51.446;-2.000;2023-01-23T04:25:49;50.57;;;24.37;;
55300;SDS011;58302;51.446;-2.000;2023-01-23T04:28:16;48.27;;;23.73;;
55300;SDS011;58302;51.446;-2.000;2023-01-23T04:30:42;60.43;;;26.10;;
55300;SDS011;58302;51.446;-2.000;2023-01-23T04:33:09;48.03;;;25.97;;
55300;SDS011;58302;51.446;-2.000;2023-01-23T04:35:35;47.57;;;24.87;;
55300;SDS011;58302;51.446;-2.000;2023-01-23T04:38:01;45.38;;;21.88;;
55300;SDS011;58302;51.446;-2.000;2023-01-23T04:40:27;42.38;;;22.80;;
55300;SDS011;58302;51.446;-2.000;2023-01-23T04:42:53;56.43;;;25.87;;
55300;SDS011;58302;51.446;-2.000;2023-01-23T04:45:19;53.20;;;24.97;;
55300;SDS011;58302;51.446;-2.000;2023-01-23T04:47:46;49.37;;;24.03;;
55300;SDS011;58302;51.446;-2.000;2023-01-23T04:50:11;42.90;;;22.57;;
55300;SDS011;58302;51.446;-2.000;2023-01-23T04:52:38;41.47;;;22.80;;
55300;SDS011;58302;51.446;-2.000;2023-01-23T04:55:04;51.47;;;24.37;;
55300;SDS011;58302;51.446;-2.000;2023-01-23T04:57:30;54.33;;;24.17;;
55300;SDS011;58302;51.446;-2.000;2023-01-23T04:59:56;45.67;;;23.37;;
55300;SDS011;58302;51.446;-2.000;2023-01-23T05:02:22;50.77;;;24.30;;
55300;SDS011;58302;51.446;-2.000;2023-01-23T05:04:48;66.30;;;28.83;;
55300;SDS011;58302;51.446;-2.000;2023-01-23T05:07:14;54.25;;;26.98;;
55300;SDS011;58302;51.446;-2.000;2023-01-23T05:09:40;69.47;;;32.00;;
55300;SDS011;58302;51.446;-2.000;2023-01-23T05:12:06;77.37;;;33.17;;
55300;SDS011;58302;51.446;-2.000;2023-01-23T05:14:32;75.47;;;31.03;;
55300;SDS011;58302;51.446;-2.000;2023-01-23T05:16:58;56.40;;;28.80;;
55300;SDS011;58302;51.446;-2.000;2023-01-23T05:19:24;65.57;;;27.70;;
55300;SDS011;58302;51.446;-2.000;2023-01-23T05:21:50;73.40;;;31.73;;
55300;SDS011;58302;51.446;-2.000;2023-01-23T05:24:16;66.23;;;28.57;;
55300;SDS011;58302;51.446;-2.000;2023-01-23T05:26:42;47.00;;;25.67;;
55300;SDS011;58302;51.446;-2.000;2023-01-23T05:29:08;52.47;;;24.80;;
55300;SDS011;58302;51.446;-2.000;2023-01-23T05:31:34;45.73;;;21.70;;
55300;SDS011;58302;51.446;-2.000;2023-01-23T05:34:00;43.60;;;22.87;;
55300;SDS011;58302;51.446;-2.000;2023-01-23T05:36:26;40.30;;;23.33;;
55300;SDS011;58302;51.446;-2.000;2023-01-23T05:38:53;50.90;;;26.10;;
55300;SDS011;58302;51.446;-2.000;2023-01-23T05:41:20;53.20;;;27.00;;
55300;SDS011;58302;51.446;-2.000;2023-01-23T05:43:46;49.20;;;26.07;;
55300;SDS011;58302;51.446;-2.000;2023-01-23T05:46:14;63.93;;;30.63;;
55300;SDS011;58302;51.446;-2.000;2023-01-23T05:48:41;51.77;;;28.40;;
55300;SDS011;58302;51.446;-2.000;2023-01-23T05:51:07;53.83;;;26.17;;
55300;SDS011;58302;51.446;-2.000;2023-01-23T05:53:32;51.03;;;28.30;;
55300;SDS011;58302;51.446;-2.000;2023-01-23T05:55:58;61.47;;;32.07;;
55300;SDS011;58302;51.446;-2.000;2023-01-23T05:58:29;55.92;;;28.98;;
55300;SDS011;58302;51.446;-2.000;2023-01-23T06:00:55;56.25;;;27.00;;
55300;SDS011;58302;51.446;-2.000;2023-01-23T06:03:20;47.70;;;26.30;;
55300;SDS011;58302;51.446;-2.000;2023-01-23T06:05:46;62.63;;;30.63;;
55300;SDS011;58302;51.446;-2.000;2023-01-23T06:08:12;70.40;;;32.47;;
55300;SDS011;58302;51.446;-2.000;2023-01-23T06:10:38;75.50;;;33.58;;
55300;SDS011;58302;51.446;-2.000;2023-01-23T06:13:04;76.30;;;34.15;;
55300;SDS011;58302;51.446;-2.000;2023-01-23T06:15:30;84.67;;;38.93;;
55300;SDS011;58302;51.446;-2.000;2023-01-23T06:17:56;83.00;;;38.67;;
55300;SDS011;58302;51.446;-2.000;2023-01-23T06:20:22;91.33;;;42.83;;
55300;SDS011;58302;51.446;-2.000;2023-01-23T06:22:48;94.77;;;41.87;;
55300;SDS011;58302;51.446;-2.000;2023-01-23T06:25:14;98.80;;;42.73;;
55300;SDS011;58302;51.446;-2.000;2023-01-23T06:27:40;84.43;;;41.07;;
55300;SDS011;58302;51.446;-2.000;2023-01-23T06:30:06;80.70;;;36.43;;
55300;SDS011;58302;51.446;-2.000;2023-01-23T06:32:33;103.10;;;48.70;;
55300;SDS011;58302;51.446;-2.000;2023-01-23T06:34:59;104.00;;;44.70;;
55300;SDS011;58302;51.446;-2.000;2023-01-23T06:37:25;87.70;;;39.97;;
55300;SDS011;58302;51.446;-2.000;2023-01-23T06:39:51;58.83;;;31.90;;
55300;SDS011;58302;51.446;-2.000;2023-01-23T06:42:17;50.63;;;26.77;;
55300;SDS011;58302;51.446;-2.000;2023-01-23T06:44:43;55.40;;;27.87;;
55300;SDS011;58302;51.446;-2.000;2023-01-23T06:47:09;70.43;;;33.87;;
55300;SDS011;58302;51.446;-2.000;2023-01-23T06:49:35;82.80;;;39.60;;
55300;SDS011;58302;51.446;-2.000;2023-01-23T06:52:01;68.33;;;32.73;;
55300;SDS011;58302;51.446;-2.000;2023-01-23T06:54:27;51.30;;;27.73;;
55300;SDS011;58302;51.446;-2.000;2023-01-23T06:56:53;58.67;;;30.87;;
55300;SDS011;58302;51.446;-2.000;2023-01-23T06:59:19;63.37;;;32.47;;
55300;SDS011;58302;51.446;-2.000;2023-01-23T07:01:45;55.97;;;29.77;;
55300;SDS011;58302;51.446;-2.000;2023-01-23T07:04:11;56.07;;;30.43;;
55300;SDS011;58302;51.446;-2.000;2023-01-23T07:06:37;43.17;;;25.40;;
55300;SDS011;58302;51.446;-2.000;2023-01-23T07:09:02;44.47;;;22.57;;
55300;SDS011;58302;51.446;-2.000;2023-01-23T07:11:29;44.00;;;22.37;;
55300;SDS011;58302;51.446;-2.000;2023-01-23T07:13:55;44.77;;;23.67;;
55300;SDS011;58302;51.446;-2.000;2023-01-23T07:16:21;52.83;;;24.10;;
55300;SDS011;58302;51.446;-2.000;2023-01-23T07:18:47;57.97;;;26.97;;
55300;SDS011;58302;51.446;-2.000;2023-01-23T07:21:13;62.27;;;29.97;;
55300;SDS011;58302;51.446;-2.000;2023-01-23T07:23:39;65.90;;;29.93;;
55300;SDS011;58302;51.446;-2.000;2023-01-23T07:26:05;66.77;;;28.97;;
55300;SDS011;58302;51.446;-2.000;2023-01-23T07:28:37;58.70;;;26.30;;
55300;SDS011;58302;51.446;-2.000;2023-01-23T07:31:04;65.33;;;29.73;;
55300;SDS011;58302;51.446;-2.000;2023-01-23T07:33:30;66.87;;;31.17;;
55300;SDS011;58302;51.446;-2.000;2023-01-23T07:35:56;49.80;;;24.15;;
55300;SDS011;58302;51.446;-2.000;2023-01-23T07:38:22;52.13;;;24.43;;
55300;SDS011;58302;51.446;-2.000;2023-01-23T07:40:48;58.30;;;28.17;;
55300;SDS011;58302;51.446;-2.000;2023-01-23T07:43:15;43.33;;;22.20;;
55300;SDS011;58302;51.446;-2.000;2023-01-23T07:45:41;51.03;;;25.63;;
55300;SDS011;58302;51.446;-2.000;2023-01-23T07:48:08;45.40;;;24.33;;
55300;SDS011;58302;51.446;-2.000;2023-01-23T07:50:34;57.83;;;28.20;;
55300;SDS011;58302;51.446;-2.000;2023-01-23T07:53:02;68.10;;;34.33;;
55300;SDS011;58302;51.446;-2.000;2023-01-23T07:55:29;62.33;;;31.10;;
55300;SDS011;58302;51.446;-2.000;2023-01-23T07:57:55;55.60;;;26.67;;
55300;SDS011;58302;51.446;-2.000;2023-01-23T08:00:21;49.10;;;26.50;;
55300;SDS011;58302;51.446;-2.000;2023-01-23T08:02:48;55.10;;;28.50;;
55300;SDS011;58302;51.446;-2.000;2023-01-23T08:05:14;52.60;;;25.73;;
55300;SDS011;58302;51.446;-2.000;2023-01-23T08:07:40;53.83;;;27.07;;
55300;SDS011;58302;51.446;-2.000;2023-01-23T08:10:06;42.70;;;23.20;;
55300;SDS011;58302;51.446;-2.000;2023-01-23T08:12:33;53.20;;;24.27;;
55300;SDS011;58302;51.446;-2.000;2023-01-23T08:14:59;53.90;;;25.73;;
55300;SDS011;58302;51.446;-2.000;2023-01-23T08:17:25;48.13;;;23.90;;
55300;SDS011;58302;51.446;-2.000;2023-01-23T08:19:51;42.53;;;22.67;;
55300;SDS011;58302;51.446;-2.000;2023-01-23T08:22:17;43.67;;;20.43;;
55300;SDS011;58302;51.446;-2.000;2023-01-23T08:24:43;32.50;;;17.70;;
55300;SDS011;58302;51.446;-2.000;2023-01-23T08:27:09;33.88;;;19.02;;
55300;SDS011;58302;51.446;-2.000;2023-01-23T08:29:35;28.90;;;16.50;;
55300;SDS011;58302;51.446;-2.000;2023-01-23T08:32:00;26.50;;;14.93;;
55300;SDS011;58302;51.446;-2.000;2023-01-23T08:34:26;22.30;;;14.05;;
55300;SDS011;58302;51.446;-2.000;2023-01-23T08:36:52;16.77;;;10.95;;
55300;SDS011;58302;51.446;-2.000;2023-01-23T08:39:18;18.60;;;12.75;;
55300;SDS011;58302;51.446;-2.000;2023-01-23T08:41:45;20.85;;;13.25;;
55300;SDS011;58302;51.446;-2.000;2023-01-23T08:44:11;20.90;;;12.73;;
55300;SDS011;58302;51.446;-2.000;2023-01-23T08:46:38;27.17;;;15.00;;
55300;SDS011;58302;51.446;-2.000;2023-01-23T08:49:04;31.13;;;18.92;;
55300;SDS011;58302;51.446;-2.000;2023-01-23T08:51:30;39.92;;;22.52;;
55300;SDS011;58302;51.446;-2.000;2023-01-23T08:53:56;34.50;;;17.50;;
55300;SDS011;58302;51.446;-2.000;2023-01-23T08:56:22;25.10;;;16.30;;
55300;SDS011;58302;51.446;-2.000;2023-01-23T08:58:49;25.95;;;15.80;;
55300;SDS011;58302;51.446;-2.000;2023-01-23T09:01:17;20.95;;;12.93;;
55300;SDS011;58302;51.446;-2.000;2023-01-23T09:03:48;21.95;;;12.10;;
55300;SDS011;58302;51.446;-2.000;2023-01-23T09:06:15;17.95;;;10.30;;
55300;SDS011;58302;51.446;-2.000;2023-01-23T09:08:43;15.32;;;8.95;;
55300;SDS011;58302;51.446;-2.000;2023-01-23T09:11:09;14.55;;;9.48;;
55300;SDS011;58302;51.446;-2.000;2023-01-23T09:13:36;16.00;;;10.05;;
55300;SDS011;58302;51.446;-2.000;2023-01-23T09:16:03;20.10;;;9.68;;
55300;SDS011;58302;51.446;-2.000;2023-01-23T09:18:30;14.77;;;8.82;;
55300;SDS011;58302;51.446;-2.000;2023-01-23T09:20:56;14.95;;;9.07;;
55300;SDS011;58302;51.446;-2.000;2023-01-23T09:23:22;16.55;;;9.45;;
55300;SDS011;58302;51.446;-2.000;2023-01-23T09:25:48;12.20;;;8.65;;
55300;SDS011;58302;51.446;-2.000;2023-01-23T09:28:14;11.75;;;8.50;;
55300;SDS011;58302;51.446;-2.000;2023-01-23T09:30:40;13.93;;;8.68;;
55300;SDS011;58302;51.446;-2.000;2023-01-23T09:33:07;11.75;;;7.72;;
55300;SDS011;58302;51.446;-2.000;2023-01-23T09:35:33;14.55;;;9.48;;
55300;SDS011;58302;51.446;-2.000;2023-01-23T09:37:59;11.60;;;8.38;;
55300;SDS011;58302;51.446;-2.000;2023-01-23T09:40:45;12.25;;;8.02;;
55300;SDS011;58302;51.446;-2.000;2023-01-23T09:43:14;11.65;;;8.35;;
55300;SDS011;58302;51.446;-2.000;2023-01-23T09:46:06;11.82;;;7.97;;
55300;SDS011;58302;51.446;-2.000;2023-01-23T09:53:44;9.98;;;7.68;;
55300;SDS011;58302;51.446;-2.000;2023-01-23T09:56:13;14.65;;;8.68;;
55300;SDS011;58302;51.446;-2.000;2023-01-23T09:58:52;11.98;;;9.52;;
55300;SDS011;58302;51.446;-2.000;2023-01-23T10:01:25;10.80;;;8.23;;
55300;SDS011;58302;51.446;-2.000;2023-01-23T10:03:54;9.77;;;6.72;;
55300;SDS011;58302;51.446;-2.000;2023-01-23T10:06:22;13.80;;;6.95;;
55300;SDS011;58302;51.446;-2.000;2023-01-23T10:19:58;12.18;;;8.32;;
55300;SDS011;58302;51.446;-2.000;2023-01-23T10:25:37;8.35;;;6.75;;
55300;SDS011;58302;51.446;-2.000;2023-01-23T10:30:53;6.50;;;5.20;;
55300;SDS011;58302;51.446;-2.000;2023-01-23T10:36:26;11.02;;;8.15;;
55300;SDS011;58302;51.446;-2.000;2023-01-23T10:39:02;10.20;;;6.57;;
55300;SDS011;58302;51.446;-2.000;2023-01-23T10:41:31;10.73;;;7.05;;
55300;SDS011;58302;51.446;-2.000;2023-01-23T10:43:58;10.75;;;7.75;;
55300;SDS011;58302;51.446;-2.000;2023-01-23T10:46:27;10.05;;;6.88;;
55300;SDS011;58302;51.446;-2.000;2023-01-23T10:48:56;11.02;;;6.90;;
55300;SDS011;58302;51.446;-2.000;2023-01-23T10:56:28;9.98;;;6.95;;
55300;SDS011;58302;51.446;-2.000;2023-01-23T10:58:57;11.93;;;7.05;;
55300;SDS011;58302;51.446;-2.000;2023-01-23T11:01:26;10.05;;;5.95;;
55300;SDS011;58302;51.446;-2.000;2023-01-23T11:03:55;6.88;;;6.18;;
55300;SDS011;58302;51.446;-2.000;2023-01-23T11:06:21;8.43;;;6.57;;
55300;SDS011;58302;51.446;-2.000;2023-01-23T11:08:52;9.48;;;6.80;;
55300;SDS011;58302;51.446;-2.000;2023-01-23T11:11:23;7.85;;;6.13;;
55300;SDS011;58302;51.446;-2.000;2023-01-23T11:14:03;6.30;;;5.07;;
55300;SDS011;58302;51.446;-2.000;2023-01-23T11:16:33;7.93;;;5.78;;
55300;SDS011;58302;51.446;-2.000;2023-01-23T11:19:21;8.50;;;5.93;;
55300;SDS011;58302;51.446;-2.000;2023-01-23T11:21:52;6.60;;;5.65;;
55300;SDS011;58302;51.446;-2.000;2023-01-23T11:27:34;6.65;;;5.63;;
55300;SDS011;58302;51.446;-2.000;2023-01-23T11:32:51;7.43;;;6.05;;
55300;SDS011;58302;51.446;-2.000;2023-01-23T11:35:49;7.07;;;6.18;;
55300;SDS011;58302;51.446;-2.000;2023-01-23T11:38:24;6.00;;;5.22;;
55300;SDS011;58302;51.446;-2.000;2023-01-23T11:40:52;7.63;;;6.13;;
55300;SDS011;58302;51.446;-2.000;2023-01-23T11:43:18;13.10;;;8.50;;
55300;SDS011;58302;51.446;-2.000;2023-01-23T11:45:53;9.32;;;6.07;;
55300;SDS011;58302;51.446;-2.000;2023-01-23T11:51:42;6.60;;;5.47;;
55300;SDS011;58302;51.446;-2.000;2023-01-23T11:57:28;7.93;;;6.05;;
55300;SDS011;58302;51.446;-2.000;2023-01-23T12:03:28;13.10;;;10.07;;
55300;SDS011;58302;51.446;-2.000;2023-01-23T12:11:41;10.80;;;7.38;;
55300;SDS011;58302;51.446;-2.000;2023-01-23T12:14:34;9.35;;;6.53;;
55300;SDS011;58302;51.446;-2.000;2023-01-23T12:17:17;6.25;;;4.63;;
55300;SDS011;58302;51.446;-2.000;2023-01-23T12:27:42;6.45;;;4.80;;
55300;SDS011;58302;51.446;-2.000;2023-01-23T12:40:51;4.15;;;3.28;;
55300;SDS011;58302;51.446;-2.000;2023-01-23T12:43:33;8.02;;;4.68;;
55300;SDS011;58302;51.446;-2.000;2023-01-23T12:46:09;4.95;;;4.45;;
55300;SDS011;58302;51.446;-2.000;2023-01-23T12:48:53;5.97;;;4.45;;
55300;SDS011;58302;51.446;-2.000;2023-01-23T12:51:30;10.23;;;8.68;;
55300;SDS011;58302;51.446;-2.000;2023-01-23T12:54:01;26.92;;;22.42;;
55300;SDS011;58302;51.446;-2.000;2023-01-23T12:56:34;13.07;;;11.52;;
55300;SDS011;58302;51.446;-2.000;2023-01-23T12:59:04;6.30;;;3.83;;
55300;SDS011;58302;51.446;-2.000;2023-01-23T13:01:41;6.00;;;3.50;;
55300;SDS011;58302;51.446;-2.000;2023-01-23T13:09:49;4.45;;;2.70;;
55300;SDS011;58302;51.446;-2.000;2023-01-23T13:12:20;2.90;;;2.50;;
55300;SDS011;58302;51.446;-2.000;2023-01-23T13:14:50;3.50;;;3.00;;
55300;SDS011;58302;51.446;-2.000;2023-01-23T13:28:51;5.05;;;2.92;;
55300;SDS011;58302;51.446;-2.000;2023-01-23T13:36:40;3.45;;;3.15;;
55300;SDS011;58302;51.446;-2.000;2023-01-23T13:41:42;4.22;;;3.35;;
55300;SDS011;58302;51.446;-2.000;2023-01-23T13:44:25;11.73;;;4.85;;
55300;SDS011;58302;51.446;-2.000;2023-01-23T13:47:11;7.20;;;4.60;;
55300;SDS011;58302;51.446;-2.000;2023-01-23T13:52:37;8.77;;;4.75;;
55300;SDS011;58302;51.446;-2.000;2023-01-23T13:55:30;6.93;;;3.75;;
55300;SDS011;58302;51.446;-2.000;2023-01-23T13:58:18;7.50;;;5.55;;
55300;SDS011;58302;51.446;-2.000;2023-01-23T14:00:59;5.47;;;4.50;;
55300;SDS011;58302;51.446;-2.000;2023-01-23T14:03:49;8.05;;;4.88;;
55300;SDS011;58302;51.446;-2.000;2023-01-23T14:06:37;6.65;;;4.65;;
55300;SDS011;58302;51.446;-2.000;2023-01-23T14:09:21;6.47;;;5.20;;
55300;SDS011;58302;51.446;-2.000;2023-01-23T14:11:58;6.53;;;5.28;;
55300;SDS011;58302;51.446;-2.000;2023-01-23T14:14:33;7.32;;;5.05;;
55300;SDS011;58302;51.446;-2.000;2023-01-23T14:17:19;8.43;;;5.82;;
55300;SDS011;58302;51.446;-2.000;2023-01-23T14:19:51;7.63;;;5.03;;
55300;SDS011;58302;51.446;-2.000;2023-01-23T14:22:29;5.57;;;3.90;;
55300;SDS011;58302;51.446;-2.000;2023-01-23T14:24:56;5.25;;;4.00;;
55300;SDS011;58302;51.446;-2.000;2023-01-23T14:27:28;5.63;;;4.15;;
55300;SDS011;58302;51.446;-2.000;2023-01-23T14:30:02;6.72;;;4.28;;
55300;SDS011;58302;51.446;-2.000;2023-01-23T14:38:05;10.48;;;4.97;;
55300;SDS011;58302;51.446;-2.000;2023-01-23T14:40:32;7.65;;;4.88;;
55300;SDS011;58302;51.446;-2.000;2023-01-23T14:42:59;8.48;;;4.65;;
55300;SDS011;58302;51.446;-2.000;2023-01-23T14:45:30;5.47;;;4.18;;
55300;SDS011;58302;51.446;-2.000;2023-01-23T14:47:57;7.35;;;5.40;;
55300;SDS011;58302;51.446;-2.000;2023-01-23T14:50:24;7.25;;;5.25;;
55300;SDS011;58302;51.446;-2.000;2023-01-23T14:53:05;9.07;;;8.00;;
55300;SDS011;58302;51.446;-2.000;2023-01-23T14:55:38;9.32;;;6.43;;
55300;SDS011;58302;51.446;-2.000;2023-01-23T14:58:06;6.80;;;4.90;;
55300;SDS011;58302;51.446;-2.000;2023-01-23T15:00:37;92.38;;;38.50;;
55300;SDS011;58302;51.446;-2.000;2023-01-23T15:03:09;162.95;;;114.13;;
55300;SDS011;58302;51.446;-2.000;2023-01-23T15:05:37;26.23;;;21.35;;
55300;SDS011;58302;51.446;-2.000;2023-01-23T15:08:16;8.23;;;6.43;;
55300;SDS011;58302;51.446;-2.000;2023-01-23T15:10:46;7.93;;;5.07;;
55300;SDS011;58302;51.446;-2.000;2023-01-23T15:13:24;6.82;;;5.28;;
55300;SDS011;58302;51.446;-2.000;2023-01-23T15:16:00;8.82;;;4.90;;
55300;SDS011;58302;51.446;-2.000;2023-01-23T15:18:29;9.50;;;5.13;;
55300;SDS011;58302;51.446;-2.000;2023-01-23T15:20:59;12.45;;;7.00;;
55300;SDS011;58302;51.446;-2.000;2023-01-23T15:23:32;16.77;;;9.20;;
55300;SDS011;58302;51.446;-2.000;2023-01-23T15:33:50;18.65;;;12.93;;
55300;SDS011;58302;51.446;-2.000;2023-01-23T15:36:21;9.95;;;7.18;;
55300;SDS011;58302;51.446;-2.000;2023-01-23T15:38:54;7.60;;;5.63;;
55300;SDS011;58302;51.446;-2.000;2023-01-23T15:44:25;5.97;;;4.53;;
55300;SDS011;58302;51.446;-2.000;2023-01-23T15:46:53;4.97;;;3.97;;
55300;SDS011;58302;51.446;-2.000;2023-01-23T15:49:19;9.32;;;4.88;;
55300;SDS011;58302;51.446;-2.000;2023-01-23T15:51:46;9.48;;;6.15;;
55300;SDS011;58302;51.446;-2.000;2023-01-23T15:54:20;9.75;;;5.93;;
55300;SDS011;58302;51.446;-2.000;2023-01-23T15:56:49;8.98;;;6.60;;
55300;SDS011;58302;51.446;-2.000;2023-01-23T15:59:16;6.88;;;5.82;;
55300;SDS011;58302;51.446;-2.000;2023-01-23T16:01:43;10.57;;;6.95;;
55300;SDS011;58302;51.446;-2.000;2023-01-23T16:04:09;10.48;;;5.55;;
55300;SDS011;58302;51.446;-2.000;2023-01-23T16:06:35;8.50;;;6.28;;
55300;SDS011;58302;51.446;-2.000;2023-01-23T16:09:01;8.80;;;5.80;;
55300;SDS011;58302;51.446;-2.000;2023-01-23T16:11:28;11.40;;;6.45;;
55300;SDS011;58302;51.446;-2.000;2023-01-23T16:13:58;10.20;;;6.20;;
55300;SDS011;58302;51.446;-2.000;2023-01-23T16:16:26;10.80;;;5.68;;
55300;SDS011;58302;51.446;-2.000;2023-01-23T16:18:52;6.82;;;5.30;;
55300;SDS011;58302;51.446;-2.000;2023-01-23T16:21:18;10.00;;;5.75;;
55300;SDS011;58302;51.446;-2.000;2023-01-23T16:23:48;13.77;;;6.22;;
55300;SDS011;58302;51.446;-2.000;2023-01-23T16:26:21;8.48;;;5.80;;
55300;SDS011;58302;51.446;-2.000;2023-01-23T16:28:50;8.45;;;6.93;;